Time;durP1;ratioP1;P1;durP2;ratioP2;P2;SDS_P1;SDS_P2;PMS_P1;PMS_P2;Temp;Humidity;BMP_temperature;BMP_pressure;BME280_temperature;BME280_humidity;BME280_pressure;Samples;Min_cycle;Max_cycle;Signal;HPM_P1;HPM_P2
2022/02/17 00:00:28;;;;;;;103.45;49.78;;;;;;;3.84;79.75;99610.91;5070615;28;20113;-37
2022/02/17 00:02:53;;;;;;;104.03;50.60;;;;;;;4.09;79.84;99603.03;5070621;28;20029;-38
2022/02/17 00:05:20;;;;;;;100.63;48.60;;;;;;;4.02;79.05;99602.06;5070582;28;20033;-38
2022/02/17 00:07:46;;;;;;;120.38;55.03;;;;;;;3.86;80.17;99608.94;5070543;28;20060;-37
2022/02/17 00:10:11;;;;;;;94.25;46.80;;;;;;;3.79;79.22;99602.69;5070265;28;20079;-37
2022/02/17 00:12:37;;;;;;;114.15;51.30;;;;;;;3.80;80.14;99609.59;5070087;28;20020;-38
2022/02/17 00:15:03;;;;;;;115.68;50.05;;;;;;;3.83;79.86;99619.81;5070283;28;20020;-37
2022/02/17 00:17:28;;;;;;;109.32;49.40;;;;;;;3.91;80.17;99611.09;5070203;28;20033;-38
2022/02/17 00:19:54;;;;;;;116.10;51.55;;;;;;;3.82;79.72;99607.63;5070022;28;20051;-38
2022/02/17 00:22:19;;;;;;;106.13;50.28;;;;;;;3.85;79.86;99609.13;5070091;28;20024;-38
2022/02/17 00:24:45;;;;;;;109.32;50.33;;;;;;;3.81;80.24;99616.50;5070359;28;20036;-38
2022/02/17 00:27:10;;;;;;;103.97;47.80;;;;;;;4.02;79.43;99607.31;5070021;28;20392;-37
2022/02/17 00:29:36;;;;;;;96.22;46.40;;;;;;;4.00;80.18;99601.38;5070034;28;20082;-37
2022/02/17 00:32:02;;;;;;;85.50;43.83;;;;;;;4.04;79.17;99595.63;5070087;28;20451;-37
2022/02/17 00:34:27;;;;;;;87.65;42.38;;;;;;;4.04;78.98;99600.06;5073700;28;20071;-37
2022/02/17 00:36:52;;;;;;;87.80;40.97;;;;;;;3.79;79.58;99596.59;5074018;28;20029;-38
2022/02/17 00:39:18;;;;;;;81.97;39.58;;;;;;;3.81;79.96;99586.72;5074047;28;20028;-38
2022/02/17 00:41:43;;;;;;;78.80;40.75;;;;;;;3.99;78.74;99589.19;5073763;28;20028;-39
2022/02/17 00:44:09;;;;;;;83.68;40.90;;;;;;;3.99;78.22;99591.84;5073796;28;20029;-38
2022/02/17 00:46:35;;;;;;;81.88;40.33;;;;;;;3.89;79.36;99587.56;5073618;28;20020;-38
2022/02/17 00:49:01;;;;;;;78.18;40.97;;;;;;;3.79;79.66;99578.16;5073508;28;20047;-37
2022/02/17 00:51:26;;;;;;;76.50;39.30;;;;;;;3.73;79.33;99579.63;5073839;28;20024;-38
2022/02/17 00:53:52;;;;;;;85.57;40.10;;;;;;;3.74;79.32;99583.09;5073611;28;20025;-38
2022/02/17 00:56:17;;;;;;;80.70;38.80;;;;;;;3.79;78.55;99581.63;5073590;28;20024;-38
2022/02/17 00:58:43;;;;;;;82.10;41.08;;;;;;;3.71;78.65;99586.88;5073747;28;20024;-37
2022/02/17 01:01:08;;;;;;;75.43;39.00;;;;;;;3.81;78.87;99586.72;5073485;28;20032;-38
2022/02/17 01:03:34;;;;;;;80.95;40.13;;;;;;;3.70;78.95;99582.59;5073317;28;20058;-38
2022/02/17 01:06:00;;;;;;;79.00;39.90;;;;;;;3.84;78.36;99576.69;5073331;28;20404;-38
2022/02/17 01:08:26;;;;;;;76.10;39.13;;;;;;;3.83;77.96;99574.22;5073818;28;20032;-38
2022/02/17 01:10:51;;;;;;;76.18;38.85;;;;;;;3.75;77.84;99585.59;5074230;28;20093;-38
2022/02/17 01:13:17;;;;;;;77.25;38.20;;;;;;;3.59;77.85;99590.81;5073701;28;20039;-38
2022/02/17 01:15:42;;;;;;;74.70;37.17;;;;;;;3.72;77.78;99585.91;5073710;28;20025;-38
2022/02/17 01:18:07;;;;;;;78.22;38.00;;;;;;;3.76;77.78;99587.22;5073807;28;20035;-37
2022/02/17 01:20:33;;;;;;;69.50;36.10;;;;;;;3.52;77.55;99583.56;5073713;28;20032;-38
2022/02/17 01:22:58;;;;;;;77.20;38.10;;;;;;;3.67;77.54;99580.28;5074008;28;20029;-38
2022/02/17 01:25:24;;;;;;;75.00;36.58;;;;;;;3.56;77.97;99577.97;5073918;28;20107;-38
2022/02/17 01:27:51;;;;;;;74.22;37.70;;;;;;;3.43;77.77;99567.94;5073656;28;20029;-38
2022/02/17 01:30:17;;;;;;;77.22;38.30;;;;;;;3.40;78.15;99563.81;5073811;28;20093;-38
2022/02/17 01:32:42;;;;;;;78.55;37.72;;;;;;;3.36;79.30;99559.03;5073515;28;20021;-37
2022/02/17 01:35:08;;;;;;;73.65;36.63;;;;;;;3.39;78.82;99551.66;5073294;28;20044;-38
2022/02/17 01:37:34;;;;;;;74.45;37.80;;;;;;;3.37;78.34;99548.34;5073235;28;20035;-38
2022/02/17 01:39:59;;;;;;;73.78;37.08;;;;;;;3.48;78.31;99549.84;5073162;28;20027;-37
2022/02/17 01:42:24;;;;;;;72.93;36.97;;;;;;;3.50;78.00;99540.81;5073085;28;20021;-38
2022/02/17 01:44:50;;;;;;;73.25;37.47;;;;;;;3.47;78.08;99529.78;5072845;28;20031;-37
2022/02/17 01:47:16;;;;;;;71.60;35.97;;;;;;;3.39;79.08;99530.59;5073025;28;20035;-37
2022/02/17 01:49:42;;;;;;;77.57;36.72;;;;;;;3.61;77.90;99526.50;5073226;28;20476;-37
2022/02/17 01:52:08;;;;;;;72.90;36.97;;;;;;;3.40;78.61;99539.31;5073320;28;20099;-37
2022/02/17 01:54:34;;;;;;;76.18;37.08;;;;;;;3.49;78.69;99539.16;5072839;28;20020;-38
2022/02/17 01:57:00;;;;;;;76.78;37.50;;;;;;;3.30;78.42;99526.31;5073409;28;20040;-37
2022/02/17 01:59:26;;;;;;;78.28;38.20;;;;;;;3.33;78.86;99533.84;5055000;28;20033;-37
2022/02/17 02:01:51;;;;;;;74.45;37.30;;;;;;;3.24;79.35;99525.16;5072935;28;20040;-37
2022/02/17 02:04:17;;;;;;;76.57;36.42;;;;;;;3.35;79.07;99531.91;5073316;28;20032;-37
2022/02/17 02:06:42;;;;;;;71.30;35.95;;;;;;;3.39;79.94;99522.72;5072577;28;20464;-38
2022/02/17 02:09:08;;;;;;;73.13;36.05;;;;;;;3.33;79.52;99525.97;5072967;28;20036;-37
2022/02/17 02:11:33;;;;;;;72.95;35.88;;;;;;;3.43;79.56;99529.28;5072610;28;20028;-37
2022/02/17 02:13:59;;;;;;;70.97;36.60;;;;;;;3.32;79.67;99522.53;5072801;28;20028;-37
2022/02/17 02:16:24;;;;;;;69.18;36.65;;;;;;;3.43;79.29;99526.66;5072241;28;20032;-37
2022/02/17 02:18:50;;;;;;;69.03;34.88;;;;;;;3.27;80.09;99521.34;5072270;28;20036;-37
2022/02/17 02:21:15;;;;;;;69.82;34.03;;;;;;;3.42;80.13;99521.56;5072116;28;20475;-37
2022/02/17 02:23:41;;;;;;;65.85;34.50;;;;;;;3.64;79.08;99518.28;5070606;28;20115;-37
2022/02/17 02:26:06;;;;;;;65.57;33.90;;;;;;;3.92;77.48;99520.56;5072144;28;20040;-37
2022/02/17 02:28:32;;;;;;;60.75;33.10;;;;;;;3.80;77.84;99521.91;5071772;28;20640;-37
2022/02/17 02:30:58;;;;;;;69.60;33.83;;;;;;;3.64;79.13;99513.03;5071220;28;20033;-37
2022/02/17 02:33:23;;;;;;;66.03;33.08;;;;;;;3.63;78.42;99505.28;5071156;28;20020;-38
2022/02/17 02:35:49;;;;;;;60.70;31.42;;;;;;;3.54;79.23;99507.06;5071907;28;20377;-37
2022/02/17 02:38:15;;;;;;;65.93;33.58;;;;;;;3.70;78.05;99507.09;5071704;28;20028;-37
2022/02/17 02:40:40;;;;;;;67.85;34.65;;;;;;;3.46;79.13;99520.22;5071453;28;20033;-37
2022/02/17 02:43:06;;;;;;;71.45;35.92;;;;;;;3.91;76.80;99519.75;5071511;28;20036;-38
2022/02/17 02:45:32;;;;;;;71.72;34.33;;;;;;;3.77;76.65;99501.16;5071854;28;20472;-37
2022/02/17 02:47:57;;;;;;;70.63;34.25;;;;;;;3.48;77.03;99503.31;5071708;28;20107;-37
2022/02/17 02:50:23;;;;;;;69.65;33.45;;;;;;;3.45;78.04;99503.63;5071573;28;20025;-37
2022/02/17 02:52:49;;;;;;;65.55;32.95;;;;;;;3.30;79.33;99500.81;5071597;28;20462;-37
2022/02/17 02:55:14;;;;;;;70.15;32.40;;;;;;;3.12;79.65;99508.00;5071208;28;20047;-37
2022/02/17 02:57:40;;;;;;;67.75;33.08;;;;;;;3.21;79.51;99498.34;5072173;28;20465;-37
2022/02/17 03:00:06;;;;;;;66.50;33.47;;;;;;;3.19;79.68;99500.31;5071879;28;20045;-37
2022/02/17 03:02:31;;;;;;;72.85;33.10;;;;;;;3.27;79.05;99500.31;5072145;28;20024;-37
2022/02/17 03:04:57;;;;;;;76.45;36.05;;;;;;;3.10;79.44;99500.31;5071861;28;20032;-37
2022/02/17 03:07:22;;;;;;;65.78;32.63;;;;;;;3.20;79.67;99508.03;5070688;28;20056;-38
2022/02/17 03:09:47;;;;;;;70.82;32.17;;;;;;;3.36;78.42;99514.31;5071021;28;20044;-38
2022/02/17 03:12:13;;;;;;;66.88;32.67;;;;;;;3.05;79.88;99518.34;5071178;28;20031;-38
2022/02/17 03:14:40;;;;;;;62.53;32.63;;;;;;;3.02;79.70;99515.22;5070889;28;20054;-38
2022/02/17 03:17:06;;;;;;;65.55;33.00;;;;;;;3.06;79.41;99509.47;5071276;28;20033;-38
2022/02/17 03:19:31;;;;;;;63.97;33.53;;;;;;;3.06;78.91;99514.72;5071239;28;20047;-38
2022/02/17 03:21:57;;;;;;;68.03;33.63;;;;;;;2.87;80.18;99509.75;5071316;28;20024;-38
2022/02/17 03:24:22;;;;;;;72.25;36.30;;;;;;;3.30;78.89;99511.34;5071158;28;20032;-38
2022/02/17 03:26:48;;;;;;;75.70;37.70;;;;;;;3.05;79.62;99501.78;5071338;28;20024;-38
2022/02/17 03:29:13;;;;;;;75.47;36.17;;;;;;;2.90;79.51;99512.06;5071289;28;20043;-38
2022/02/17 03:31:38;;;;;;;71.82;37.35;;;;;;;2.95;79.21;99504.50;5071581;28;20083;-38
2022/02/17 03:34:04;;;;;;;69.53;35.45;;;;;;;3.28;77.78;99512.50;5071504;28;20029;-38
2022/02/17 03:36:30;;;;;;;72.22;36.08;;;;;;;3.11;77.91;99511.63;5071187;28;20025;-37
2022/02/17 03:38:57;;;;;;;70.75;35.92;;;;;;;2.72;80.23;99518.25;5071376;28;20411;-36
2022/02/17 03:41:23;;;;;;;71.07;35.05;;;;;;;2.70;80.47;99522.00;5071245;28;20055;-37
2022/02/17 03:43:48;;;;;;;69.35;35.03;;;;;;;2.58;79.87;99513.59;5071108;28;20484;-37
2022/02/17 03:46:14;;;;;;;70.18;34.45;;;;;;;2.50;80.44;99503.88;5071217;28;20021;-37
2022/02/17 03:48:39;;;;;;;71.53;35.75;;;;;;;2.68;79.53;99505.56;5070887;28;20028;-37
2022/02/17 03:51:05;;;;;;;69.60;34.15;;;;;;;2.45;80.21;99507.94;5069761;28;20028;-46
2022/02/17 03:53:30;;;;;;;65.50;34.47;;;;;;;2.53;80.73;99503.56;5070797;28;20017;-37
2022/02/17 03:55:56;;;;;;;75.65;34.33;;;;;;;2.52;80.06;99501.09;5071433;28;20037;-39
2022/02/17 04:01:05;;;;;;;70.25;34.60;;;;;;;2.41;80.16;99503.97;5071412;28;20065;-41
2022/02/17 04:03:31;;;;;;;63.42;32.90;;;;;;;2.30;80.12;99502.44;5071779;28;20025;-39
2022/02/17 04:05:56;;;;;;;64.30;32.10;;;;;;;2.38;81.31;99504.28;5071428;28;20056;-38
2022/02/17 04:08:22;;;;;;;72.20;34.53;;;;;;;2.39;80.97;99511.19;5072825;28;20082;-37
2022/02/17 04:10:47;;;;;;;69.63;34.00;;;;;;;2.36;81.46;99504.44;5075106;28;20468;-36
2022/02/17 04:13:13;;;;;;;63.08;32.75;;;;;;;2.53;80.91;99514.06;5074722;28;20408;-38
2022/02/17 04:15:38;;;;;;;63.67;32.80;;;;;;;2.52;80.71;99517.66;5075266;28;20024;-38
2022/02/17 04:18:04;;;;;;;62.03;32.13;;;;;;;2.59;80.79;99514.41;5073497;28;20028;-37
2022/02/17 04:20:29;;;;;;;60.28;31.75;;;;;;;2.54;81.31;99515.69;5074636;28;20097;-38
2022/02/17 04:22:54;;;;;;;59.58;30.40;;;;;;;2.43;80.37;99508.09;5074632;28;20038;-37
2022/02/17 04:25:20;;;;;;;54.00;28.35;;;;;;;2.40;81.06;99505.78;5074978;28;20032;-37
2022/02/17 04:27:46;;;;;;;54.88;28.13;;;;;;;2.43;81.59;99499.41;5074888;28;20035;-37
2022/02/17 04:30:11;;;;;;;54.67;28.38;;;;;;;2.56;80.62;99505.03;5074656;28;20020;-37
2022/02/17 04:32:37;;;;;;;56.63;27.42;;;;;;;2.54;80.51;99496.50;5075102;28;20028;-38
2022/02/17 04:35:02;;;;;;;50.53;25.90;;;;;;;2.61;79.80;99499.31;5075192;28;20060;-38
2022/02/17 04:37:28;;;;;;;51.17;25.55;;;;;;;2.59;79.87;99488.97;5075256;28;20028;-39
2022/02/17 04:39:53;;;;;;;49.33;26.48;;;;;;;2.57;80.08;99496.19;5074874;28;20415;-40
2022/02/17 04:42:19;;;;;;;77.55;38.22;;;;;;;2.55;80.36;99498.13;5074869;28;20396;-37
2022/02/17 04:44:46;;;;;;;132.43;56.00;;;;;;;2.58;80.85;99489.13;5074459;28;20227;-37
2022/02/17 04:47:12;;;;;;;108.97;49.28;;;;;;;2.61;80.24;99486.16;5074452;28;20031;-37
2022/02/17 04:49:37;;;;;;;75.10;33.97;;;;;;;2.56;80.70;99491.09;5074196;28;20032;-37
2022/02/17 04:52:03;;;;;;;55.90;28.67;;;;;;;2.62;80.29;99483.38;5074166;28;20373;-37
2022/02/17 04:54:29;;;;;;;58.15;27.45;;;;;;;2.73;80.09;99483.09;5074142;28;20036;-37
2022/02/17 04:56:54;;;;;;;58.40;28.15;;;;;;;2.51;79.57;99483.66;5073930;28;20024;-37
2022/02/17 04:59:19;;;;;;;56.63;28.55;;;;;;;2.48;80.19;99481.38;5073726;28;20029;-37
2022/02/17 05:01:45;;;;;;;54.08;28.13;;;;;;;2.79;82.46;99468.50;5073380;28;20021;-37
2022/02/17 05:04:10;;;;;;;59.80;28.88;;;;;;;2.92;78.38;99470.69;5073452;28;20360;-37
2022/02/17 05:06:36;;;;;;;61.83;30.80;;;;;;;2.58;78.32;99462.84;5073298;28;20518;-37
2022/02/17 05:09:01;;;;;;;64.80;30.75;;;;;;;2.41;78.93;99461.97;5073102;28;20368;-38
2022/02/17 05:11:27;;;;;;;65.82;31.00;;;;;;;2.36;79.88;99459.78;5073151;28;20024;-37
2022/02/17 05:13:52;;;;;;;67.30;30.83;;;;;;;2.02;79.66;99428.28;5073061;28;20116;-38
2022/02/17 05:16:18;;;;;;;66.28;32.00;;;;;;;2.09;80.78;99463.44;5073128;28;20368;-38
2022/02/17 05:18:43;;;;;;;68.90;33.35;;;;;;;2.09;80.73;99458.19;5072321;28;20500;-36
2022/02/17 05:21:09;;;;;;;67.85;32.40;;;;;;;2.15;81.64;99454.94;5072951;28;20458;-36
2022/02/17 05:23:34;;;;;;;68.72;33.25;;;;;;;2.40;81.49;99460.28;5073054;28;20016;-37
2022/02/17 05:26:00;;;;;;;68.40;33.95;;;;;;;2.39;80.65;99462.09;5072884;28;20025;-37
2022/02/17 05:28:25;;;;;;;69.45;34.38;;;;;;;2.41;80.76;99472.47;5071180;28;20032;-37
2022/02/17 05:30:51;;;;;;;64.25;32.03;;;;;;;2.47;80.13;99472.66;5072557;28;20032;-37
2022/02/17 05:33:16;;;;;;;62.55;32.67;;;;;;;2.54;80.41;99464.97;5072407;28;20020;-37
2022/02/17 05:35:42;;;;;;;67.28;32.28;;;;;;;2.30;80.30;99440.25;5072930;28;20028;-37
2022/02/17 05:38:07;;;;;;;88.18;40.53;;;;;;;2.39;80.69;99462.09;5072181;28;20044;-38
2022/02/17 05:40:33;;;;;;;111.38;47.20;;;;;;;2.41;80.43;99468.03;5072459;28;20497;-38
2022/02/17 05:42:59;;;;;;;56.15;27.80;;;;;;;2.61;79.65;99450.22;5071633;28;20453;-37
2022/02/17 05:45:25;;;;;;;53.03;27.10;;;;;;;2.49;80.17;99440.97;5071703;28;20031;-39
2022/02/17 05:47:51;;;;;;;55.00;26.83;;;;;;;2.47;80.39;99440.31;5071545;28;20020;-37
2022/02/17 05:50:17;;;;;;;52.67;27.15;;;;;;;2.60;79.77;99447.75;5071883;28;20027;-38
2022/02/17 05:52:42;;;;;;;55.30;24.85;;;;;;;2.57;80.22;99445.44;5072700;28;20013;-37
2022/02/17 05:55:08;;;;;;;49.47;25.25;;;;;;;2.75;79.53;99438.28;5072355;28;20032;-37
2022/02/17 05:57:33;;;;;;;55.33;26.45;;;;;;;2.96;79.27;99435.19;5071839;28;20028;-38
2022/02/17 05:59:59;;;;;;;55.00;27.20;;;;;;;3.01;79.48;99422.41;5061850;28;20024;-38
2022/02/17 06:02:26;;;;;;;85.55;40.95;;;;;;;3.33;78.12;99432.13;5052045;28;20381;-38
2022/02/17 06:04:52;;;;;;;93.95;44.97;;;;;;;3.50;78.03;99432.94;5061252;28;20139;-37
2022/02/17 06:07:18;;;;;;;56.70;29.13;;;;;;;3.42;77.52;99397.91;5071518;28;20041;-38
2022/02/17 06:09:44;;;;;;;51.95;25.58;;;;;;;3.78;76.66;99416.78;5070054;28;20514;-37
2022/02/17 06:12:10;;;;;;;51.25;26.08;;;;;;;4.03;77.70;99424.63;5052678;28;20013;-38
2022/02/17 06:14:35;;;;;;;48.30;25.10;;;;;;;4.11;75.52;99424.59;5074948;28;20031;-38
2022/02/17 06:17:01;;;;;;;50.58;25.25;;;;;;;4.18;75.48;99425.56;5071121;28;20035;-38
2022/02/17 06:19:26;;;;;;;70.10;36.42;;;;;;;4.55;74.28;99418.84;5070018;28;20448;-38
2022/02/17 06:21:52;;;;;;;64.47;34.95;;;;;;;4.64;73.54;99423.03;5069441;28;20441;-38
2022/02/17 06:24:17;;;;;;;50.17;26.50;;;;;;;4.48;73.29;99431.88;5072076;28;20024;-39
2022/02/17 06:26:43;;;;;;;46.33;25.10;;;;;;;4.67;72.86;99429.81;5072042;28;20472;-38
2022/02/17 06:29:08;;;;;;;44.00;24.52;;;;;;;4.83;72.48;99428.88;5071025;28;20020;-37
2022/02/17 06:31:34;;;;;;;50.22;24.95;;;;;;;4.98;71.80;99421.88;5070423;28;20023;-38
2022/02/17 06:33:59;;;;;;;46.33;24.92;;;;;;;5.28;70.87;99424.63;5070445;28;20039;-38
2022/02/17 06:36:26;;;;;;;47.05;24.27;;;;;;;5.25;70.73;99424.97;5071816;28;20050;-38
2022/02/17 06:38:51;;;;;;;45.72;24.63;;;;;;;5.41;69.96;99422.22;5071787;28;20062;-38
2022/02/17 06:41:21;;;;;;;50.10;25.27;;;;;;;5.63;69.41;99425.00;5071484;28;20032;-38
2022/02/17 06:43:46;;;;;;;56.70;30.52;;;;;;;5.71;69.11;99419.63;5054865;28;20028;-37
2022/02/17 06:46:12;;;;;;;72.25;37.72;;;;;;;6.10;68.00;99423.09;5072064;28;20117;-38
2022/02/17 06:48:37;;;;;;;45.13;26.20;;;;;;;6.31;66.92;99423.16;5071573;28;20030;-38
2022/02/17 06:51:03;;;;;;;47.55;24.80;;;;;;;6.57;65.97;99419.22;5071605;28;20052;-37
2022/02/17 06:53:28;;;;;;;44.85;24.90;;;;;;;6.60;65.59;99416.19;5071418;28;20387;-38
2022/02/17 06:55:54;;;;;;;46.72;24.45;;;;;;;6.55;64.83;99385.03;5071587;28;20024;-37
2022/02/17 06:58:19;;;;;;;47.53;25.45;;;;;;;6.57;65.47;99413.94;5071960;28;20027;-38
2022/02/17 07:00:45;;;;;;;49.90;24.45;;;;;;;7.91;62.08;99414.13;5071171;28;20028;-38
2022/02/17 07:03:10;;;;;;;43.70;23.33;;;;;;;7.30;62.54;99413.88;5071112;28;20031;-38
2022/02/17 07:05:36;;;;;;;45.25;25.15;;;;;;;7.28;62.02;99414.06;5069896;28;20048;-37
2022/02/17 07:08:01;;;;;;;47.17;25.05;;;;;;;7.14;62.68;99388.47;5071110;28;20029;-38
2022/02/17 07:13:11;;;;;;;45.42;24.58;;;;;;;7.61;62.20;99409.00;5071400;28;20499;-38
2022/02/17 07:15:36;;;;;;;44.65;24.33;;;;;;;7.56;62.11;99407.97;5071041;28;20028;-39
2022/02/17 07:18:06;;;;;;;44.97;25.92;;;;;;;6.90;64.67;99414.28;5071380;28;20031;-38
2022/02/17 07:20:32;;;;;;;45.22;27.02;;;;;;;7.93;61.72;99422.69;5071335;28;20051;-38
2022/02/17 07:22:58;;;;;;;49.20;26.42;;;;;;;8.08;60.50;99421.78;5070657;28;20059;-38
2022/02/17 07:25:24;;;;;;;50.97;27.13;;;;;;;7.60;61.36;99425.94;5070728;28;20032;-39
2022/02/17 07:27:49;;;;;;;54.10;27.10;;;;;;;7.73;61.05;99419.09;5069556;28;20036;-38
2022/02/17 07:30:15;;;;;;;46.67;25.45;;;;;;;7.64;61.75;99427.19;5070565;28;20025;-37
2022/02/17 07:32:41;;;;;;;48.50;27.23;;;;;;;8.04;61.48;99424.00;5070378;28;20023;-37
2022/02/17 07:35:06;;;;;;;49.05;27.48;;;;;;;8.19;60.49;99424.69;5070728;28;20121;-38
2022/02/17 07:37:32;;;;;;;47.28;25.83;;;;;;;8.63;59.98;99432.50;5070783;28;20508;-38
2022/02/17 07:39:57;;;;;;;50.17;28.10;;;;;;;9.88;57.08;99439.00;5069788;28;20028;-38
2022/02/17 07:42:23;;;;;;;48.25;28.35;;;;;;;9.46;56.83;99435.75;5070512;28;20028;-37
2022/02/17 07:44:48;;;;;;;47.88;27.00;;;;;;;9.17;57.73;99418.31;5070590;28;20025;-37
2022/02/17 07:47:14;;;;;;;47.72;27.13;;;;;;;9.18;57.99;99420.78;5070703;28;20013;-37
2022/02/17 07:49:39;;;;;;;47.05;25.95;;;;;;;9.03;58.84;99437.91;5070497;28;20039;-37
2022/02/17 07:52:05;;;;;;;45.05;25.58;;;;;;;8.72;59.97;99437.41;5070620;28;20024;-38
2022/02/17 07:54:30;;;;;;;44.15;25.98;;;;;;;8.84;59.64;99436.84;5070487;28;20404;-38
2022/02/17 07:56:56;;;;;;;43.95;25.45;;;;;;;9.53;58.56;99449.81;5070612;28;20090;-37
2022/02/17 07:59:21;;;;;;;42.35;24.38;;;;;;;9.83;56.83;99449.41;5070367;28;20028;-38
2022/02/17 08:01:46;;;;;;;42.05;24.52;;;;;;;9.98;57.03;99449.19;5070796;28;20484;-38
2022/02/17 08:04:12;;;;;;;41.28;23.15;;;;;;;9.81;57.61;99448.81;5070920;28;20040;-38
2022/02/17 08:06:38;;;;;;;41.97;23.45;;;;;;;9.85;57.72;99460.66;5070240;28;20044;-38
2022/02/17 08:09:04;;;;;;;43.30;24.02;;;;;;;9.82;57.69;99445.13;5070518;28;20025;-37
2022/02/17 08:11:29;;;;;;;40.55;24.10;;;;;;;10.04;57.70;99440.41;5070976;28;20389;-38
2022/02/17 08:13:55;;;;;;;42.22;24.48;;;;;;;10.87;56.40;99422.94;5071222;28;20032;-38
2022/02/17 08:16:23;;;;;;;43.00;23.35;;;;;;;11.28;54.41;99422.47;5070768;28;20059;-39
2022/02/17 08:18:48;;;;;;;40.72;24.08;;;;;;;10.99;55.74;99425.75;5069912;28;20564;-38
2022/02/17 08:21:14;;;;;;;40.60;23.73;;;;;;;11.11;55.70;99424.84;5070282;28;20319;-39
2022/02/17 08:23:39;;;;;;;42.55;23.13;;;;;;;10.84;55.22;99421.53;5069354;28;20157;-38
2022/02/17 08:26:05;;;;;;;41.72;23.85;;;;;;;11.03;55.07;99426.97;5069005;28;20020;-38
2022/02/17 08:28:30;;;;;;;45.25;24.80;;;;;;;11.49;54.51;99423.97;5068639;28;20031;-39
2022/02/17 08:30:56;;;;;;;45.97;24.48;;;;;;;12.39;51.97;99413.91;5069013;28;20021;-38
2022/02/17 08:33:21;;;;;;;42.92;24.63;;;;;;;11.85;52.98;99419.75;5068675;28;20017;-37
2022/02/17 08:35:47;;;;;;;38.25;23.70;;;;;;;11.89;52.06;99412.16;5068605;28;20404;-38
2022/02/17 08:38:12;;;;;;;43.75;25.05;;;;;;;12.01;52.55;99404.25;5068753;28;20016;-38
2022/02/17 08:40:38;;;;;;;42.80;24.08;;;;;;;11.51;52.84;99405.91;5070614;28;20020;-39
2022/02/17 08:43:09;;;;;;;42.60;24.08;;;;;;;11.58;53.38;99402.41;5069883;28;20025;-38
2022/02/17 08:45:40;;;;;;;41.35;24.10;;;;;;;11.83;52.31;99394.38;5070047;28;20457;-40
2022/02/17 08:48:06;;;;;;;39.78;23.75;;;;;;;12.16;52.08;99382.56;5070022;28;20119;-38
2022/02/17 08:50:32;;;;;;;41.97;23.88;;;;;;;12.49;51.18;99383.00;5070131;28;20483;-39
2022/02/17 08:52:57;;;;;;;41.40;23.60;;;;;;;12.68;50.29;99370.44;5070088;28;20017;-39
2022/02/17 08:55:23;;;;;;;40.88;23.80;;;;;;;12.44;50.73;99374.84;5073181;28;20400;-38
2022/02/17 08:57:49;;;;;;;42.60;24.50;;;;;;;12.75;50.04;99377.53;5074106;28;20020;-38
2022/02/17 09:00:15;;;;;;;38.42;23.80;;;;;;;12.87;49.46;99367.69;5073770;28;20031;-39
2022/02/17 09:02:40;;;;;;;41.75;25.70;;;;;;;13.06;48.87;99371.94;5073624;28;20078;-39
2022/02/17 09:05:07;;;;;;;44.70;24.83;;;;;;;13.40;48.75;99363.41;5073994;28;20404;-39
2022/02/17 09:07:32;;;;;;;40.42;25.52;;;;;;;13.27;48.60;99346.53;5073633;28;20053;-39
2022/02/17 09:09:58;;;;;;;44.85;26.40;;;;;;;13.13;49.38;99338.97;5073811;28;20035;-39
2022/02/17 09:12:23;;;;;;;46.58;26.67;;;;;;;13.24;49.08;99335.50;5073232;28;20017;-38
2022/02/17 09:14:48;;;;;;;45.05;26.38;;;;;;;13.47;48.66;99343.56;5073520;28;20028;-38
2022/02/17 09:17:14;;;;;;;43.63;26.85;;;;;;;13.30;48.58;99335.41;5073709;28;20028;-38
2022/02/17 09:19:40;;;;;;;51.53;27.50;;;;;;;13.36;49.30;99339.00;5073094;28;20484;-38
2022/02/17 09:22:05;;;;;;;44.83;27.77;;;;;;;13.59;48.00;99337.41;5073153;28;20021;-38
2022/02/17 09:24:30;;;;;;;42.90;26.77;;;;;;;13.89;47.86;99324.69;5073313;28;20024;-38
2022/02/17 09:26:56;;;;;;;41.05;25.92;;;;;;;14.04;47.20;99316.16;5073273;28;20032;-38
2022/02/17 09:29:21;;;;;;;46.28;26.48;;;;;;;14.21;46.72;99312.75;5073119;28;20024;-39
2022/02/17 09:31:47;;;;;;;47.72;26.73;;;;;;;14.16;46.73;99308.09;5073070;28;20067;-39
2022/02/17 09:34:12;;;;;;;38.63;25.20;;;;;;;14.20;46.60;99311.13;5072979;28;20032;-38
2022/02/17 09:36:38;;;;;;;43.67;26.60;;;;;;;14.11;46.76;99302.69;5073037;28;20032;-38
2022/02/17 09:39:04;;;;;;;44.42;26.67;;;;;;;14.01;46.97;99297.09;5073123;28;20025;-38
2022/02/17 09:41:29;;;;;;;42.72;26.67;;;;;;;14.20;46.63;99293.22;5072531;28;20510;-38
2022/02/17 09:44:02;;;;;;;42.95;26.27;;;;;;;14.16;46.49;99289.38;5073115;28;20016;-38
2022/02/17 09:46:27;;;;;;;42.35;26.55;;;;;;;14.00;47.54;99277.56;5071423;28;20606;-38
2022/02/17 09:49:00;;;;;;;40.85;25.67;;;;;;;13.99;46.61;99269.78;5071274;28;20025;-38
2022/02/17 09:51:26;;;;;;;43.55;26.63;;;;;;;14.02;47.37;99274.66;5072556;28;20020;-39
2022/02/17 09:53:52;;;;;;;43.03;27.02;;;;;;;14.15;46.80;99265.56;5072593;28;20028;-39
2022/02/17 09:56:24;;;;;;;40.55;25.33;;;;;;;14.30;47.02;99255.13;5072917;28;20017;-38
2022/02/17 09:58:50;;;;;;;42.40;26.45;;;;;;;14.23;46.99;99252.59;5072619;28;20182;-38
2022/02/17 10:01:19;;;;;;;40.40;25.85;;;;;;;14.38;46.36;99248.59;5072527;28;20032;-39
2022/02/17 10:03:44;;;;;;;40.10;26.17;;;;;;;14.25;46.54;99234.44;5072148;28;20460;-39
2022/02/17 10:06:14;;;;;;;44.33;26.60;;;;;;;14.41;46.16;99226.66;5072036;28;20051;-38
2022/02/17 10:08:39;;;;;;;47.15;26.20;;;;;;;14.50;46.04;99224.44;5072050;28;20400;-38
2022/02/17 10:11:06;;;;;;;37.60;24.58;;;;;;;14.66;45.30;99212.97;5072023;28;20111;-38
2022/02/17 10:13:31;;;;;;;38.65;24.60;;;;;;;14.68;45.12;99205.50;5071591;28;20036;-38
2022/02/17 10:15:59;;;;;;;38.72;23.25;;;;;;;14.50;46.03;99192.31;5071773;28;20087;-38
2022/02/17 10:18:30;;;;;;;40.00;24.08;;;;;;;14.80;45.65;99187.47;5070780;28;20035;-39
2022/02/17 10:21:08;;;;;;;36.65;24.65;;;;;;;14.83;45.23;99176.25;5071739;28;20020;-39
2022/02/17 10:23:40;;;;;;;39.15;23.45;;;;;;;14.64;45.27;99167.69;5071811;28;20024;-38
2022/02/17 10:26:10;;;;;;;39.17;23.60;;;;;;;14.48;45.95;99163.09;5071919;28;20032;-38
2022/02/17 10:28:41;;;;;;;39.15;23.70;;;;;;;14.78;45.02;99153.94;5071789;28;20120;-38
2022/02/17 10:31:08;;;;;;;42.13;23.15;;;;;;;15.00;44.72;99148.63;5071905;28;20032;-38
2022/02/17 10:33:41;;;;;;;38.65;23.75;;;;;;;14.90;44.84;99143.94;5071584;28;20062;-38
2022/02/17 10:36:06;;;;;;;37.53;23.50;;;;;;;14.92;45.74;99133.78;5071502;28;20024;-39
2022/02/17 10:38:32;;;;;;;43.45;26.02;;;;;;;15.07;44.43;99132.38;5071920;28;20025;-39
2022/02/17 10:40:57;;;;;;;43.67;26.42;;;;;;;15.17;44.06;99119.94;5071429;28;20119;-38
2022/02/17 10:43:27;;;;;;;44.15;26.90;;;;;;;15.16;45.04;99112.94;5070986;28;20143;-39
2022/02/17 10:45:52;;;;;;;50.28;27.83;;;;;;;15.01;44.90;99105.50;5071288;28;20081;-39
2022/02/17 10:48:26;;;;;;;42.28;25.80;;;;;;;14.92;45.68;99111.56;5071117;28;20020;-40
2022/02/17 10:51:10;;;;;;;39.08;24.17;;;;;;;14.78;44.91;99101.19;5071198;28;20515;-38
2022/02/17 10:53:42;;;;;;;43.70;25.73;;;;;;;15.36;44.13;99106.19;5070742;28;20031;-38
2022/02/17 10:56:11;;;;;;;39.55;22.73;;;;;;;15.04;44.58;99096.16;5071656;28;20059;-38
2022/02/17 10:58:46;;;;;;;37.70;23.05;;;;;;;15.36;43.61;99098.16;5070769;28;20031;-39
2022/02/17 11:01:12;;;;;;;36.53;21.90;;;;;;;15.43;43.54;99090.75;5071213;28;20064;-39
2022/02/17 11:03:38;;;;;;;36.80;23.42;;;;;;;15.42;44.59;99081.06;5071213;28;20047;-38
2022/02/17 11:06:04;;;;;;;36.80;20.92;;;;;;;15.20;44.22;99065.03;5071055;28;20114;-38
2022/02/17 11:08:29;;;;;;;33.42;21.13;;;;;;;15.39;43.62;99073.53;5071046;28;20024;-40
2022/02/17 11:10:56;;;;;;;32.40;20.98;;;;;;;15.42;44.23;99059.63;5070713;28;20028;-37
2022/02/17 11:13:22;;;;;;;32.17;20.73;;;;;;;15.42;44.30;99059.63;5070755;28;20514;-38
2022/02/17 11:15:48;;;;;;;36.60;21.63;;;;;;;15.56;43.71;99062.75;5071077;28;20101;-39
2022/02/17 11:18:16;;;;;;;32.67;20.08;;;;;;;15.29;43.79;99065.38;5070075;28;20047;-39
2022/02/17 11:20:42;;;;;;;32.28;19.65;;;;;;;15.34;43.96;99060.06;5069618;28;20449;-38